createdAt,value
2023-03-01T00:01:40.676Z,7.60
2023-03-01T00:04:07.594Z,7.75
2023-03-01T00:06:34.488Z,7.80
2023-03-01T00:09:01.317Z,8.48
2023-03-01T00:11:31.989Z,7.88
2023-03-01T00:14:02.305Z,7.57
2023-03-01T00:16:40.637Z,7.68
2023-03-01T00:19:21.032Z,8.63
2023-03-01T00:21:50.502Z,7.47
2023-03-01T00:24:17.798Z,7.95
2023-03-01T00:26:44.876Z,8.07
2023-03-01T00:29:11.731Z,8.02
2023-03-01T00:31:38.577Z,7.43
2023-03-01T00:34:07.331Z,7.18
2023-03-01T00:36:37.416Z,8.07
2023-03-01T00:39:09.129Z,7.85
2023-03-01T00:41:35.976Z,8.40
2023-03-01T00:44:03.251Z,8.10
2023-03-01T00:46:31.831Z,7.90
2023-03-01T00:48:59.045Z,7.75
2023-03-01T00:51:29.204Z,8.77
2023-03-01T00:54:00.442Z,8.07
2023-03-01T00:56:28.273Z,7.60
2023-03-01T00:58:55.352Z,7.13
2023-03-01T01:01:28.428Z,7.68
2023-03-01T01:04:00.205Z,7.40
2023-03-01T01:06:35.211Z,7.38
2023-03-01T01:09:03.532Z,7.57
2023-03-01T01:11:31.200Z,7.68
2023-03-01T01:14:00.144Z,8.20
2023-03-01T01:16:29.622Z,7.18
2023-03-01T01:18:57.539Z,6.82
2023-03-01T01:21:26.182Z,7.80
2023-03-01T01:23:53.281Z,8.05
2023-03-01T01:26:35.420Z,7.47
2023-03-01T01:29:05.730Z,7.35
2023-03-01T01:31:34.723Z,7.30
2023-03-01T01:34:04.497Z,7.30
2023-03-01T01:36:32.905Z,7.35
2023-03-01T01:39:00.820Z,7.95
2023-03-01T01:41:30.278Z,7.32
2023-03-01T01:44:30.836Z,6.97
2023-03-01T01:47:09.015Z,7.53
2023-03-01T01:49:44.234Z,6.72
2023-03-01T01:52:47.484Z,7.25
2023-03-01T01:55:24.708Z,7.13
2023-03-01T01:58:02.310Z,6.93
2023-03-01T02:00:30.877Z,7.30
2023-03-01T02:03:12.484Z,7.13
2023-03-01T02:05:55.764Z,7.15
2023-03-01T02:08:27.936Z,7.00
2023-03-01T02:10:57.545Z,6.60
2023-03-01T02:13:24.843Z,7.53
2023-03-01T02:15:51.816Z,7.47
2023-03-01T02:18:22.165Z,7.45
2023-03-01T02:21:35.723Z,7.47
2023-03-01T02:24:27.465Z,7.70
2023-03-01T02:26:57.567Z,7.28
2023-03-01T02:29:25.513Z,6.47
2023-03-01T02:31:57.493Z,7.22
2023-03-01T02:34:28.058Z,5.78
2023-03-01T02:37:01.423Z,6.68
2023-03-01T02:39:42.978Z,6.53
2023-03-01T02:42:17.873Z,7.07
2023-03-01T02:44:45.922Z,6.38
2023-03-01T02:47:13.865Z,6.78
2023-03-01T02:49:41.966Z,5.63
2023-03-01T02:52:29.564Z,6.00
2023-03-01T02:55:22.924Z,6.45
2023-03-01T02:57:53.496Z,6.90
2023-03-01T03:00:35.718Z,7.03
2023-03-01T03:03:02.721Z,7.05
2023-03-01T03:05:32.550Z,6.43
2023-03-01T03:08:03.823Z,6.57
2023-03-01T03:10:41.057Z,6.43
2023-03-01T03:13:16.043Z,6.68
2023-03-01T03:15:44.852Z,5.95
2023-03-01T03:18:16.375Z,6.68
2023-03-01T03:20:44.968Z,6.28
2023-03-01T03:23:11.978Z,6.60
2023-03-01T03:25:39.097Z,5.72
2023-03-01T03:28:11.286Z,7.22
2023-03-01T03:30:41.874Z,5.80
2023-03-01T03:33:13.307Z,6.72
2023-03-01T03:35:50.313Z,6.80
2023-03-01T03:38:21.903Z,5.85
2023-03-01T03:41:09.335Z,6.70
2023-03-01T03:43:40.008Z,6.70
2023-03-01T03:46:08.605Z,6.45
2023-03-01T03:48:42.265Z,6.28
2023-03-01T03:51:17.268Z,6.80
2023-03-01T03:53:45.803Z,6.35
2023-03-01T03:56:13.558Z,6.88
2023-03-01T03:58:40.600Z,5.60
2023-03-01T04:01:07.682Z,6.65
2023-03-01T04:03:36.209Z,7.10
2023-03-01T04:06:04.988Z,5.97
2023-03-01T04:08:32.256Z,7.10
2023-03-01T04:11:25.333Z,6.93
2023-03-01T04:13:55.569Z,6.63
2023-03-01T04:16:23.164Z,6.70
2023-03-01T04:18:50.831Z,6.30
2023-03-01T04:21:21.294Z,6.28
2023-03-01T04:23:48.549Z,6.25
2023-03-01T04:26:15.395Z,6.32
2023-03-01T04:28:47.062Z,6.18
2023-03-01T04:31:19.381Z,6.50
2023-03-01T04:33:52.972Z,6.28
2023-03-01T04:36:23.722Z,6.97
2023-03-01T04:38:51.259Z,7.40
2023-03-01T04:41:21.856Z,6.60
2023-03-01T04:43:49.885Z,6.70
2023-03-01T04:46:20.224Z,6.32
2023-03-01T04:48:48.401Z,6.75
2023-03-01T04:51:16.846Z,7.03
2023-03-01T04:53:45.067Z,5.82
2023-03-01T04:56:14.904Z,6.40
2023-03-01T04:58:42.579Z,7.35
2023-03-01T05:01:20.778Z,7.25
2023-03-01T05:03:51.806Z,6.43
2023-03-01T05:06:20.657Z,6.65
2023-03-01T05:08:47.568Z,6.90
2023-03-01T05:11:14.399Z,6.20
2023-03-01T05:13:41.451Z,7.43
2023-03-01T05:16:12.411Z,7.25
2023-03-01T05:18:41.478Z,6.78
2023-03-01T05:21:14.268Z,7.38
2023-03-01T05:23:41.732Z,7.22
2023-03-01T05:26:25.801Z,7.28
2023-03-01T05:28:57.849Z,7.18
2023-03-01T05:31:24.766Z,6.97
2023-03-01T05:33:51.597Z,7.25
2023-03-01T05:36:19.486Z,7.78
2023-03-01T05:38:46.398Z,7.07
2023-03-01T05:41:18.086Z,7.22
2023-03-01T05:43:46.113Z,7.40
2023-03-01T05:46:14.338Z,7.45
2023-03-01T05:48:41.452Z,7.13
2023-03-01T05:51:08.389Z,6.65
2023-03-01T05:53:35.276Z,6.35
2023-03-01T05:56:05.532Z,8.30
2023-03-01T05:58:32.888Z,6.93
2023-03-01T06:00:59.854Z,7.28
2023-03-01T06:03:27.790Z,8.20
2023-03-01T06:05:59.126Z,7.75
2023-03-01T06:08:28.183Z,6.85
2023-03-01T06:10:55.350Z,7.30
2023-03-01T06:13:24.013Z,6.70
2023-03-01T06:15:53.077Z,7.47
2023-03-01T06:18:20.084Z,6.78
2023-03-01T06:20:55.238Z,7.13
2023-03-01T06:23:23.266Z,6.63
2023-03-01T06:25:50.556Z,6.90
2023-03-01T06:28:17.484Z,7.07
2023-03-01T06:30:44.524Z,6.88
2023-03-01T06:33:11.496Z,6.00
2023-03-01T06:35:38.360Z,7.55
2023-03-01T06:38:05.807Z,6.97
2023-03-01T06:40:36.256Z,7.32
2023-03-01T06:43:03.169Z,7.50
2023-03-01T06:45:30.232Z,7.43
2023-03-01T06:48:08.455Z,7.40
2023-03-01T06:50:37.066Z,6.80
2023-03-01T06:53:04.588Z,7.35
2023-03-01T06:55:31.973Z,6.60
2023-03-01T06:58:04.016Z,8.23
2023-03-01T07:00:31.583Z,7.07
2023-03-01T07:03:03.514Z,7.10
2023-03-01T07:05:31.826Z,7.20
2023-03-01T07:07:58.930Z,7.53
2023-03-01T07:10:25.871Z,8.18
2023-03-01T07:12:57.049Z,8.25
2023-03-01T07:15:24.267Z,8.00
2023-03-01T07:17:51.769Z,7.45
2023-03-01T07:20:26.680Z,7.38
2023-03-01T07:22:55.331Z,7.57
2023-03-01T07:25:22.353Z,7.78
2023-03-01T07:27:53.769Z,7.35
2023-03-01T07:30:22.072Z,8.05
2023-03-01T07:32:49.526Z,6.47
2023-03-01T07:35:16.932Z,7.80
2023-03-01T07:37:43.918Z,7.75
2023-03-01T07:40:11.880Z,7.18
2023-03-01T07:42:39.082Z,7.70
2023-03-01T07:45:07.704Z,7.05
2023-03-01T07:47:34.603Z,6.40
2023-03-01T07:50:02.227Z,7.05
2023-03-01T07:52:29.860Z,6.82
2023-03-01T07:54:56.705Z,5.97
2023-03-01T07:57:24.448Z,6.43
2023-03-01T07:59:51.307Z,7.00
2023-03-01T08:02:18.166Z,6.80
2023-03-01T08:04:45.036Z,6.32
2023-03-01T08:07:11.844Z,6.40
2023-03-01T08:09:38.938Z,7.53
2023-03-01T08:12:06.677Z,7.38
2023-03-01T08:14:34.221Z,6.63
2023-03-01T08:17:01.214Z,7.18
2023-03-01T08:19:29.131Z,7.82
2023-03-01T08:21:59.194Z,6.50
2023-03-01T08:24:26.934Z,7.80
2023-03-01T08:26:53.865Z,7.13
2023-03-01T08:29:21.078Z,7.82
2023-03-01T08:31:49.059Z,6.47
2023-03-01T08:34:18.789Z,8.10
2023-03-01T08:36:47.631Z,6.82
2023-03-01T08:39:20.334Z,7.90
2023-03-01T08:41:48.406Z,6.22
2023-03-01T08:44:21.836Z,6.78
2023-03-01T08:46:50.937Z,6.80
2023-03-01T08:49:20.992Z,7.20
2023-03-01T08:51:48.897Z,4.63
2023-03-01T08:54:21.439Z,6.50
2023-03-01T08:59:18.415Z,5.03
2023-03-01T09:01:45.642Z,7.20
2023-03-01T09:04:15.371Z,7.10
2023-03-01T09:06:43.101Z,7.18
2023-03-01T09:09:19.321Z,5.90
2023-03-01T09:11:47.438Z,7.80
2023-03-01T09:14:15.265Z,4.95
2023-03-01T09:16:42.500Z,7.00
2023-03-01T09:19:09.862Z,5.00
2023-03-01T09:21:40.583Z,6.72
2023-03-01T09:24:16.013Z,6.82
2023-03-01T09:26:43.877Z,6.22
2023-03-01T09:29:11.395Z,8.32
2023-03-01T09:31:39.242Z,6.60
2023-03-01T09:34:06.837Z,6.35
2023-03-01T09:36:34.671Z,5.53
2023-03-01T09:39:02.571Z,4.13
2023-03-01T09:41:55.081Z,6.32
2023-03-01T09:44:46.021Z,4.20
2023-03-01T09:47:22.545Z,3.92
2023-03-01T09:50:19.766Z,4.30
2023-03-01T09:53:06.731Z,4.72
2023-03-01T09:56:20.193Z,4.68
2023-03-01T09:59:21.735Z,4.88
2023-03-01T10:02:13.080Z,5.05
2023-03-01T10:04:52.753Z,3.78
2023-03-01T10:08:00.307Z,5.13
2023-03-01T10:10:39.273Z,3.97
2023-03-01T10:13:25.112Z,5.72
2023-03-01T10:16:04.418Z,4.82
2023-03-01T10:18:37.781Z,4.60
2023-03-01T10:21:18.020Z,6.13
2023-03-01T10:23:45.219Z,4.30
2023-03-01T10:26:26.009Z,5.03
2023-03-01T10:29:09.128Z,4.25
2023-03-01T10:31:49.625Z,6.22
2023-03-01T10:34:30.086Z,5.07
2023-03-01T10:37:10.142Z,4.07
2023-03-01T10:39:37.141Z,5.18
2023-03-01T10:42:20.071Z,4.82
2023-03-01T10:44:50.418Z,4.82
2023-03-01T10:47:22.129Z,4.80
2023-03-01T10:50:03.440Z,5.05
2023-03-01T10:52:42.343Z,5.53
2023-03-01T10:55:41.831Z,5.68
2023-03-01T10:58:23.339Z,5.40
2023-03-01T11:01:17.476Z,5.88
2023-03-01T11:04:03.723Z,6.47
2023-03-01T11:06:30.830Z,4.72
2023-03-01T11:08:57.927Z,4.53
2023-03-01T11:11:36.365Z,5.25
2023-03-01T11:14:34.077Z,5.50
2023-03-01T11:17:53.546Z,5.10
2023-03-01T11:20:42.974Z,5.20
2023-03-01T11:23:15.341Z,6.43
2023-03-01T11:25:59.960Z,5.07
2023-03-01T11:28:31.296Z,5.80
2023-03-01T11:31:13.706Z,4.47
2023-03-01T11:34:20.935Z,5.59
2023-03-01T11:37:00.552Z,6.13
2023-03-01T11:40:13.691Z,4.13
2023-03-01T11:43:07.891Z,4.55
2023-03-01T11:45:54.484Z,4.60
2023-03-01T11:48:55.480Z,5.38
2023-03-01T11:51:39.526Z,5.47
2023-03-01T11:54:27.709Z,6.28
2023-03-01T11:57:10.539Z,6.07
2023-03-01T11:59:56.084Z,4.32
2023-03-01T12:02:42.193Z,5.05
2023-03-01T12:06:04.402Z,5.95
2023-03-01T12:08:43.894Z,6.18
2023-03-01T12:11:43.043Z,6.45
2023-03-01T12:14:26.891Z,6.07
2023-03-01T12:17:17.254Z,5.78
2023-03-01T12:20:27.034Z,6.40
2023-03-01T12:23:30.633Z,6.43
2023-03-01T12:26:35.763Z,5.20
2023-03-01T12:29:21.055Z,6.07
2023-03-01T12:32:02.880Z,5.63
2023-03-01T12:34:39.320Z,5.43
2023-03-01T12:37:22.354Z,4.60
2023-03-01T12:40:17.535Z,5.28
2023-03-01T12:43:50.396Z,5.60
2023-03-01T12:46:42.965Z,4.53
2023-03-01T12:49:18.581Z,6.22
2023-03-01T12:52:10.660Z,6.22
2023-03-01T12:54:38.744Z,5.95
2023-03-01T12:57:38.043Z,6.03
2023-03-01T13:00:42.003Z,6.00
2023-03-01T13:03:34.613Z,5.18
2023-03-01T13:06:41.377Z,5.90
2023-03-01T13:09:28.579Z,5.75
2023-03-01T13:11:55.470Z,5.72
2023-03-01T13:14:22.604Z,4.80
2023-03-01T13:16:54.636Z,5.47
2023-03-01T13:19:30.213Z,4.75
2023-03-01T13:21:57.518Z,5.75
2023-03-01T13:24:39.861Z,5.32
2023-03-01T13:27:23.036Z,6.10
2023-03-01T13:30:00.808Z,6.82
2023-03-01T13:32:48.507Z,5.55
2023-03-01T13:35:15.891Z,6.25
2023-03-01T13:37:45.350Z,5.93
2023-03-01T13:40:19.625Z,5.85
2023-03-01T13:43:04.215Z,4.63
2023-03-01T13:45:44.062Z,5.80
2023-03-01T13:48:24.312Z,5.90
2023-03-01T13:51:03.105Z,6.07
2023-03-01T13:53:41.332Z,5.68
2023-03-01T13:56:34.277Z,6.43
2023-03-01T13:59:07.955Z,5.32
2023-03-01T14:01:37.465Z,6.00
2023-03-01T14:04:21.232Z,6.43
2023-03-01T14:06:48.150Z,5.72
2023-03-01T14:09:26.008Z,6.03
2023-03-01T14:12:47.196Z,5.38
2023-03-01T14:15:32.938Z,5.75
2023-03-01T14:18:27.443Z,4.75
2023-03-01T14:20:54.331Z,6.25
2023-03-01T14:23:25.030Z,7.43
2023-03-01T14:25:59.194Z,6.78
2023-03-01T14:28:31.096Z,5.97
2023-03-01T14:31:03.408Z,6.50
2023-03-01T14:33:38.166Z,6.53
2023-03-01T14:36:11.684Z,5.68
2023-03-01T14:38:45.527Z,6.32
2023-03-01T14:41:21.361Z,6.22
2023-03-01T14:43:54.264Z,6.85
2023-03-01T14:46:35.646Z,5.65
2023-03-01T14:49:27.956Z,6.53
2023-03-01T14:52:18.486Z,6.50
2023-03-01T14:54:53.900Z,6.50
2023-03-01T14:57:27.487Z,5.85
2023-03-01T15:00:07.341Z,7.18
2023-03-01T15:02:36.392Z,6.20
2023-03-01T15:05:08.650Z,6.68
2023-03-01T15:07:42.546Z,6.13
2023-03-01T15:10:24.472Z,6.50
2023-03-01T15:12:53.794Z,6.82
2023-03-01T15:15:29.518Z,6.00
2023-03-01T15:18:00.819Z,6.40
2023-03-01T15:20:31.490Z,6.47
2023-03-01T15:23:00.982Z,7.38
2023-03-01T15:25:31.547Z,7.03
2023-03-01T15:28:02.198Z,7.22
2023-03-01T15:30:35.961Z,6.55
2023-03-01T15:33:35.833Z,7.05
2023-03-01T15:36:32.158Z,6.05
2023-03-01T15:39:01.307Z,6.15
2023-03-01T15:41:34.007Z,5.47
2023-03-01T15:44:19.338Z,6.40
2023-03-01T15:46:49.528Z,6.93
2023-03-01T15:49:28.273Z,5.55
2023-03-01T15:51:56.875Z,6.72
2023-03-01T15:54:27.698Z,6.35
2023-03-01T15:56:54.617Z,5.97
2023-03-01T15:59:23.259Z,6.07
2023-03-01T16:01:50.697Z,5.55
2023-03-01T16:04:24.103Z,6.43
2023-03-01T16:06:56.301Z,5.75
2023-03-01T16:11:53.223Z,6.03
2023-03-01T16:14:20.590Z,7.00
2023-03-01T16:16:49.038Z,5.25
2023-03-01T16:19:17.341Z,5.80
2023-03-01T16:21:47.626Z,5.55
2023-03-01T16:24:15.593Z,6.40
2023-03-01T16:26:43.264Z,6.07
2023-03-01T16:29:10.608Z,5.60
2023-03-01T16:31:37.683Z,7.50
2023-03-01T16:34:04.951Z,6.85
2023-03-01T16:36:31.915Z,6.30
2023-03-01T16:39:01.894Z,6.10
2023-03-01T16:41:29.149Z,5.80
2023-03-01T16:43:56.716Z,5.78
2023-03-01T16:46:29.931Z,5.47
2023-03-01T16:48:57.824Z,5.88
2023-03-01T16:51:25.928Z,6.78
2023-03-01T16:53:53.816Z,5.45
2023-03-01T16:56:21.135Z,5.07
2023-03-01T16:58:48.070Z,5.47
2023-03-01T17:01:21.203Z,6.43
2023-03-01T17:03:50.423Z,6.20
2023-03-01T17:06:23.108Z,6.00
2023-03-01T17:08:50.078Z,5.93
2023-03-01T17:11:20.066Z,5.63
2023-03-01T17:13:48.665Z,6.75
2023-03-01T17:16:19.579Z,6.32
2023-03-01T17:18:47.108Z,6.88
2023-03-01T17:21:14.592Z,6.30
2023-03-01T17:23:44.984Z,6.57
2023-03-01T17:26:13.627Z,6.60
2023-03-01T17:28:40.985Z,6.65
2023-03-01T17:31:08.802Z,6.43
2023-03-01T17:33:36.215Z,6.50
2023-03-01T17:36:03.487Z,6.82
2023-03-01T17:38:30.412Z,6.93
2023-03-01T17:41:01.114Z,6.20
2023-03-01T17:43:29.073Z,6.50
2023-03-01T17:45:57.176Z,5.75
2023-03-01T17:48:24.249Z,6.20
2023-03-01T17:50:51.348Z,5.68
2023-03-01T17:53:19.150Z,5.72
2023-03-01T17:55:46.306Z,6.00
2023-03-01T17:58:14.816Z,5.28
2023-03-01T18:00:42.023Z,5.88
2023-03-01T18:03:09.048Z,6.22
2023-03-01T18:05:38.026Z,5.75
2023-03-01T18:08:05.417Z,4.80
2023-03-01T18:10:34.427Z,5.88
2023-03-01T18:13:01.213Z,4.80
2023-03-01T18:15:28.996Z,5.32
2023-03-01T18:17:56.119Z,5.38
2023-03-01T18:20:23.028Z,5.78
2023-03-01T18:22:50.997Z,6.32
2023-03-01T18:25:17.931Z,5.10
2023-03-01T18:27:45.083Z,4.85
2023-03-01T18:30:13.842Z,4.85
2023-03-01T18:32:40.963Z,5.30
2023-03-01T18:35:08.547Z,6.32
2023-03-01T18:37:35.488Z,4.82
2023-03-01T18:40:02.486Z,5.82
2023-03-01T18:42:29.324Z,5.18
2023-03-01T18:44:57.925Z,5.47
2023-03-01T18:47:24.772Z,6.00
2023-03-01T18:49:51.614Z,5.80
2023-03-01T18:52:18.461Z,5.45
2023-03-01T18:54:45.296Z,11.23
2023-03-01T18:57:12.232Z,7.07
2023-03-01T18:59:39.200Z,4.45
2023-03-01T19:02:06.357Z,5.35
2023-03-01T19:04:33.373Z,5.05
2023-03-01T19:07:02.203Z,5.47
2023-03-01T19:09:29.201Z,4.57
2023-03-01T19:11:58.847Z,3.85
2023-03-01T19:14:25.963Z,4.53
2023-03-01T19:16:53.188Z,5.20
2023-03-01T19:19:20.893Z,5.00
2023-03-01T19:21:59.427Z,5.53
2023-03-01T19:24:31.566Z,4.22
2023-03-01T19:26:58.575Z,5.38
2023-03-01T19:29:26.282Z,5.25
2023-03-01T19:31:53.171Z,5.53
2023-03-01T19:34:22.843Z,5.07
2023-03-01T19:36:49.846Z,5.93
2023-03-01T19:39:17.000Z,5.13
2023-03-01T19:41:44.884Z,5.47
2023-03-01T19:44:12.673Z,5.47
2023-03-01T19:46:40.448Z,5.63
2023-03-01T19:49:08.105Z,5.53
2023-03-01T19:51:38.888Z,5.20
2023-03-01T19:54:06.745Z,5.30
2023-03-01T19:56:34.863Z,4.68
2023-03-01T19:59:04.413Z,6.20
2023-03-01T20:01:34.486Z,5.75
2023-03-01T20:04:02.811Z,5.00
2023-03-01T20:06:30.280Z,4.47
2023-03-01T20:08:58.673Z,4.18
2023-03-01T20:11:25.685Z,4.90
2023-03-01T20:13:52.638Z,5.00
2023-03-01T20:16:20.933Z,4.93
2023-03-01T20:18:47.828Z,4.70
2023-03-01T20:21:24.202Z,4.72
2023-03-01T20:23:52.457Z,4.78
2023-03-01T20:26:20.473Z,4.32
2023-03-01T20:28:51.464Z,4.85
2023-03-01T20:31:21.628Z,5.70
2023-03-01T20:33:49.003Z,5.07
2023-03-01T20:36:16.025Z,5.10
2023-03-01T20:38:42.858Z,4.07
2023-03-01T20:41:13.622Z,5.57
2023-03-01T20:43:43.455Z,4.97
2023-03-01T20:46:14.932Z,5.30
2023-03-01T20:48:43.206Z,5.10
2023-03-01T20:51:12.785Z,4.70
2023-03-01T20:53:40.875Z,4.78
2023-03-01T20:56:14.880Z,5.93
2023-03-01T20:58:42.831Z,4.22
2023-03-01T21:01:15.459Z,3.92
2023-03-01T21:03:42.790Z,4.85
2023-03-01T21:06:09.890Z,5.05
2023-03-01T21:08:37.421Z,5.20
2023-03-01T21:11:07.034Z,4.35
2023-03-01T21:13:34.980Z,4.85
2023-03-01T21:16:10.488Z,4.10
2023-03-01T21:18:37.451Z,4.70
2023-03-01T21:21:10.381Z,4.03
2023-03-01T21:23:40.494Z,4.60
2023-03-01T21:26:23.957Z,4.80
2023-03-01T21:28:58.871Z,3.83
2023-03-01T21:31:32.150Z,4.97
2023-03-01T21:34:04.070Z,4.82
2023-03-01T21:36:32.653Z,5.15
2023-03-01T21:39:05.316Z,4.95
2023-03-01T21:41:36.680Z,4.90
2023-03-01T21:44:06.692Z,4.43
2023-03-01T21:46:38.495Z,4.00
2023-03-01T21:49:07.241Z,4.60
2023-03-01T21:51:36.441Z,5.10
2023-03-01T21:54:03.647Z,4.45
2023-03-01T21:56:35.118Z,4.70
2023-03-01T21:59:02.450Z,4.32
2023-03-01T22:01:30.232Z,3.95
2023-03-01T22:03:59.867Z,4.25
2023-03-01T22:06:38.202Z,3.95
2023-03-01T22:09:12.554Z,3.85
2023-03-01T22:11:43.810Z,4.05
2023-03-01T22:14:13.594Z,4.80
2023-03-01T22:16:45.305Z,5.32
2023-03-01T22:19:15.763Z,4.55
2023-03-01T22:21:46.201Z,5.30
2023-03-01T22:24:15.074Z,5.30
2023-03-01T22:26:45.678Z,4.22
2023-03-01T22:29:26.516Z,4.35
2023-03-01T22:31:55.801Z,5.13
2023-03-01T22:34:23.039Z,5.35
2023-03-01T22:36:50.551Z,5.22
2023-03-01T22:39:21.209Z,4.80
2023-03-01T22:41:50.288Z,5.13
2023-03-01T22:44:22.885Z,4.55
2023-03-01T22:46:50.627Z,4.93
2023-03-01T22:49:20.146Z,4.25
2023-03-01T22:51:47.682Z,4.95
2023-03-01T22:54:15.838Z,4.70
2023-03-01T22:56:43.235Z,4.80
2023-03-01T22:59:14.508Z,5.10
2023-03-01T23:01:47.647Z,5.53
2023-03-01T23:04:19.600Z,5.07
2023-03-01T23:06:56.225Z,4.43
2023-03-01T23:09:32.802Z,3.85
2023-03-01T23:12:02.798Z,5.07
2023-03-01T23:14:32.465Z,4.90
2023-03-01T23:17:03.020Z,4.57
2023-03-01T23:19:31.062Z,5.35
2023-03-01T23:21:58.172Z,5.30
2023-03-01T23:24:31.387Z,5.10
2023-03-01T23:27:01.260Z,5.05
2023-03-01T23:29:28.156Z,5.82
2023-03-01T23:31:59.241Z,4.50
2023-03-01T23:34:27.263Z,4.20
2023-03-01T23:36:55.714Z,5.38
2023-03-01T23:39:23.201Z,4.68
2023-03-01T23:41:50.605Z,5.22
2023-03-01T23:44:21.342Z,4.75
2023-03-01T23:46:51.252Z,4.53
2023-03-01T23:49:22.345Z,4.82
2023-03-01T23:51:49.824Z,5.45
2023-03-01T23:54:20.148Z,5.00
2023-03-01T23:56:47.305Z,4.53
2023-03-01T23:59:23.837Z,4.82
